createdAt,value
2018-05-10T00:01:46.864Z,99047.66
2018-05-10T00:04:14.444Z,99053.69
2018-05-10T00:06:42.115Z,99059.25
2018-05-10T00:09:09.524Z,99055.68
2018-05-10T00:11:36.916Z,99050.03
2018-05-10T00:14:04.311Z,99050.13
2018-05-10T00:16:31.923Z,99048.31
2018-05-10T00:18:59.536Z,99051.16
2018-05-10T00:21:27.223Z,99049.39
2018-05-10T00:23:54.808Z,99051.50
2018-05-10T00:26:23.144Z,99052.55
2018-05-10T00:28:50.847Z,99048.22
2018-05-10T00:31:18.425Z,99044.59
2018-05-10T00:33:45.864Z,99042.27
2018-05-10T00:36:13.588Z,99041.14
2018-05-10T00:38:40.937Z,99042.34
2018-05-10T00:41:08.319Z,99043.22
2018-05-10T00:43:35.705Z,99036.10
2018-05-10T00:46:03.086Z,99036.90
2018-05-10T00:48:30.475Z,99032.77
2018-05-10T00:50:57.855Z,99033.28
2018-05-10T00:53:25.245Z,99033.80
2018-05-10T00:55:52.645Z,99034.67
2018-05-10T00:58:20.047Z,99034.06
2018-05-10T01:00:47.416Z,99041.80
2018-05-10T01:03:14.797Z,99043.95
2018-05-10T01:05:42.196Z,99042.59
2018-05-10T01:08:09.574Z,99041.27
2018-05-10T01:10:36.959Z,99053.31
2018-05-10T01:13:04.339Z,99041.66
2018-05-10T01:15:31.734Z,99040.80
2018-05-10T01:17:59.113Z,99041.34
2018-05-10T01:20:26.499Z,99048.84
2018-05-10T01:22:53.888Z,99055.00
2018-05-10T01:25:21.272Z,99059.05
2018-05-10T01:27:48.656Z,99051.13
2018-05-10T01:30:16.047Z,99049.78
2018-05-10T01:32:43.962Z,99040.80
2018-05-10T01:35:23.046Z,99042.39
2018-05-10T01:37:50.410Z,99037.47
2018-05-10T01:40:17.784Z,99036.20
2018-05-10T01:42:45.167Z,99038.78
2018-05-10T01:45:12.559Z,99047.52
2018-05-10T01:47:39.941Z,99036.62
2018-05-10T01:50:07.317Z,99044.45
2018-05-10T01:52:34.708Z,99039.02
2018-05-10T01:55:02.084Z,99043.91
2018-05-10T01:57:29.468Z,99044.95
2018-05-10T01:59:56.838Z,99042.67
2018-05-10T02:02:24.219Z,99042.97
2018-05-10T02:04:51.613Z,99040.09
2018-05-10T02:07:19.013Z,99036.66
2018-05-10T02:09:46.403Z,99036.39
2018-05-10T02:12:14.592Z,99027.09
2018-05-10T02:14:42.083Z,99031.39
2018-05-10T02:17:09.489Z,99039.69
2018-05-10T02:19:36.983Z,99041.50
2018-05-10T02:22:04.368Z,99041.44
2018-05-10T02:24:31.964Z,99042.70
2018-05-10T02:26:59.412Z,99048.77
2018-05-10T02:29:27.104Z,99048.55
2018-05-10T02:31:54.494Z,99050.46
2018-05-10T02:34:21.963Z,99050.59
2018-05-10T02:36:49.340Z,99056.59
2018-05-10T02:39:16.732Z,99057.72
2018-05-10T02:41:44.290Z,99062.16
2018-05-10T02:44:11.722Z,99065.69
2018-05-10T02:46:39.152Z,99065.80
2018-05-10T02:49:06.527Z,99070.80
2018-05-10T02:51:34.002Z,99076.81
2018-05-10T02:54:01.371Z,99075.67
2018-05-10T02:56:28.752Z,99078.37
2018-05-10T02:58:56.136Z,99072.13
2018-05-10T03:01:23.506Z,99077.78
2018-05-10T03:03:50.892Z,99078.41
2018-05-10T03:06:18.378Z,99080.53
2018-05-10T03:08:45.974Z,99082.21
2018-05-10T03:11:13.335Z,99085.55
2018-05-10T03:13:40.774Z,99079.89
2018-05-10T03:16:08.142Z,99074.31
2018-05-10T03:18:35.524Z,99079.49
2018-05-10T03:21:02.971Z,99076.89
2018-05-10T03:23:30.352Z,99083.22
2018-05-10T03:25:57.727Z,99073.38
2018-05-10T03:28:25.109Z,99080.33
2018-05-10T03:30:52.479Z,99077.23
2018-05-10T03:33:19.903Z,99078.89
2018-05-10T03:35:47.251Z,99080.64
2018-05-10T03:38:14.945Z,99081.71
2018-05-10T03:40:42.570Z,99079.76
2018-05-10T03:43:10.169Z,99076.34
2018-05-10T03:45:37.551Z,99080.55
2018-05-10T03:48:04.952Z,99081.23
2018-05-10T03:50:32.333Z,99088.13
2018-05-10T03:52:59.749Z,99087.73
2018-05-10T03:55:27.127Z,99097.17
2018-05-10T03:57:54.511Z,99094.23
2018-05-10T04:00:21.914Z,99099.03
2018-05-10T04:06:11.861Z,99092.45
2018-05-10T04:08:50.943Z,99093.98
2018-05-10T04:11:28.487Z,99105.95
2018-05-10T04:13:55.876Z,99115.08
2018-05-10T04:16:23.267Z,99120.62
2018-05-10T04:18:51.433Z,99130.70
2018-05-10T04:21:18.815Z,99134.61
2018-05-10T04:23:46.187Z,99132.60
2018-05-10T04:26:13.566Z,99136.30
2018-05-10T04:28:40.951Z,99137.55
2018-05-10T04:31:08.629Z,99132.66
2018-05-10T04:33:36.010Z,99133.16
2018-05-10T04:36:03.399Z,99142.52
2018-05-10T04:38:31.215Z,99141.83
2018-05-10T04:40:58.612Z,99141.16
2018-05-10T04:43:25.990Z,99149.23
2018-05-10T04:45:53.367Z,99154.27
2018-05-10T04:48:20.760Z,99165.66
2018-05-10T04:50:48.127Z,99177.22
2018-05-10T04:53:15.544Z,99191.17
2018-05-10T04:55:42.913Z,99190.39
2018-05-10T04:58:10.331Z,99198.63
2018-05-10T05:00:37.715Z,99199.64
2018-05-10T05:03:05.110Z,99203.95
2018-05-10T05:05:32.484Z,99208.84
2018-05-10T05:07:59.901Z,99213.83
2018-05-10T05:10:27.272Z,99220.84
2018-05-10T05:12:54.670Z,99217.99
2018-05-10T05:15:22.954Z,99216.77
2018-05-10T05:17:50.340Z,99211.81
2018-05-10T05:20:17.736Z,99207.10
2018-05-10T05:22:45.199Z,99209.29
2018-05-10T05:25:12.579Z,99212.29
2018-05-10T05:27:39.976Z,99219.53
2018-05-10T05:30:07.406Z,99218.89
2018-05-10T05:32:34.778Z,99226.08
2018-05-10T05:35:02.288Z,99225.96
2018-05-10T05:37:29.705Z,99226.59
2018-05-10T05:39:57.107Z,99232.76
2018-05-10T05:42:24.493Z,99231.21
2018-05-10T05:44:51.879Z,99237.78
2018-05-10T05:47:19.278Z,99240.59
2018-05-10T05:49:46.670Z,99248.92
2018-05-10T05:52:14.062Z,99249.93
2018-05-10T05:54:41.461Z,99252.94
2018-05-10T05:57:08.854Z,99252.14
2018-05-10T05:59:36.230Z,99258.08
2018-05-10T06:02:03.623Z,99262.84
2018-05-10T06:04:31.018Z,99273.31
2018-05-10T06:06:58.412Z,99280.33
2018-05-10T06:09:25.807Z,99284.36
2018-05-10T06:11:53.203Z,99292.74
2018-05-10T06:14:20.599Z,99296.21
2018-05-10T06:16:47.987Z,99302.66
2018-05-10T06:19:16.798Z,99293.20
2018-05-10T06:21:44.189Z,99309.80
2018-05-10T06:24:11.574Z,99313.17
2018-05-10T06:26:38.955Z,99321.72
2018-05-10T06:29:06.393Z,99328.18
2018-05-10T06:31:33.913Z,99328.99
2018-05-10T06:34:01.318Z,99333.59
2018-05-10T06:36:28.689Z,99344.14
2018-05-10T06:38:56.085Z,99343.65
2018-05-10T06:41:23.519Z,99342.57
2018-05-10T06:43:50.855Z,99343.97
2018-05-10T06:46:18.232Z,99344.77
2018-05-10T06:48:45.662Z,99347.66
2018-05-10T06:51:13.042Z,99355.85
2018-05-10T06:53:40.485Z,99353.71
2018-05-10T06:56:07.921Z,99366.64
2018-05-10T06:58:35.402Z,99372.23
2018-05-10T07:01:02.775Z,99371.88
2018-05-10T07:03:30.244Z,99382.64
2018-05-10T07:05:57.643Z,99384.37
2018-05-10T07:08:25.028Z,99384.79
2018-05-10T07:10:52.432Z,99393.37
2018-05-10T07:13:19.814Z,99392.90
2018-05-10T07:15:47.252Z,99392.45
2018-05-10T07:18:14.635Z,99395.95
2018-05-10T07:20:42.045Z,99392.94
2018-05-10T07:23:09.667Z,99392.92
2018-05-10T07:25:37.085Z,99396.80
2018-05-10T07:28:04.465Z,99389.50
2018-05-10T07:30:31.846Z,99397.69
2018-05-10T07:32:59.293Z,99395.96
2018-05-10T07:35:26.693Z,99398.55
2018-05-10T07:37:54.062Z,99399.39
2018-05-10T07:40:21.486Z,99401.54
2018-05-10T07:42:48.867Z,99402.41
2018-05-10T07:45:16.255Z,99401.11
2018-05-10T07:47:43.654Z,99400.26
2018-05-10T07:50:11.047Z,99404.55
2018-05-10T07:52:38.444Z,99397.67
2018-05-10T07:55:05.843Z,99394.67
2018-05-10T07:57:33.496Z,99396.38
2018-05-10T08:00:00.896Z,99404.56
2018-05-10T08:02:28.284Z,99412.75
2018-05-10T08:04:55.696Z,99412.28
2018-05-10T08:07:23.081Z,99420.89
2018-05-10T08:09:50.475Z,99414.02
2018-05-10T08:12:17.853Z,99421.75
2018-05-10T08:14:46.128Z,99421.34
2018-05-10T08:17:13.524Z,99432.49
2018-05-10T08:19:40.918Z,99431.21
2018-05-10T08:22:08.303Z,99433.36
2018-05-10T08:24:35.708Z,99428.64
2018-05-10T08:27:03.109Z,99435.05
2018-05-10T08:29:30.538Z,99432.06
2018-05-10T08:31:57.908Z,99434.22
2018-05-10T08:34:25.308Z,99438.11
2018-05-10T08:36:52.707Z,99438.96
2018-05-10T08:39:20.125Z,99439.80
2018-05-10T08:41:47.509Z,99445.40
2018-05-10T08:44:14.931Z,99448.02
2018-05-10T08:46:42.323Z,99451.42
2018-05-10T08:49:09.727Z,99452.70
2018-05-10T08:51:37.157Z,99467.33
2018-05-10T08:54:04.508Z,99470.81
2018-05-10T08:56:32.039Z,99477.68
2018-05-10T08:58:59.417Z,99483.28
2018-05-10T09:01:26.862Z,99487.12
2018-05-10T09:03:54.279Z,99489.28
2018-05-10T09:06:21.679Z,99500.05
2018-05-10T09:08:49.076Z,99499.19
2018-05-10T09:11:16.503Z,99500.47
2018-05-10T09:13:43.886Z,99504.77
2018-05-10T09:16:11.290Z,99505.64
2018-05-10T09:18:38.674Z,99507.36
2018-05-10T09:21:06.065Z,99506.52
2018-05-10T09:23:33.452Z,99508.13
2018-05-10T09:26:00.868Z,99524.13
2018-05-10T09:28:28.236Z,99519.82
2018-05-10T09:30:55.655Z,99522.86
2018-05-10T09:33:23.037Z,99529.33
2018-05-10T09:35:50.433Z,99530.19
2018-05-10T09:38:17.827Z,99532.76
2018-05-10T09:40:45.860Z,99535.33
2018-05-10T09:43:13.240Z,99538.33
2018-05-10T09:45:40.637Z,99539.66
2018-05-10T09:48:08.019Z,99538.76
2018-05-10T09:50:35.557Z,99538.79
2018-05-10T09:53:02.930Z,99549.99
2018-05-10T09:55:30.449Z,99561.61
2018-05-10T09:57:57.848Z,99564.15
2018-05-10T10:00:30.242Z,99562.88
2018-05-10T10:02:57.638Z,99569.80
2018-05-10T10:05:25.024Z,99570.59
2018-05-10T10:07:52.707Z,99566.31
2018-05-10T10:10:20.111Z,99578.74
2018-05-10T10:12:47.485Z,99579.25
2018-05-10T10:15:14.890Z,99589.58
2018-05-10T10:17:42.374Z,99577.06
2018-05-10T10:20:09.678Z,99588.70
2018-05-10T10:22:37.065Z,99583.45
2018-05-10T10:25:04.459Z,99587.70
2018-05-10T10:27:32.067Z,99593.81
2018-05-10T10:29:59.489Z,99582.00
2018-05-10T10:32:27.120Z,99593.82
2018-05-10T10:34:54.465Z,99598.15
2018-05-10T10:37:21.857Z,99591.16
2018-05-10T10:39:49.247Z,99588.55
2018-05-10T10:42:16.804Z,99594.86
2018-05-10T10:44:44.269Z,99600.17
2018-05-10T10:47:11.669Z,99596.98
2018-05-10T10:49:39.104Z,99610.19
2018-05-10T10:52:06.521Z,99603.61
2018-05-10T10:54:33.928Z,99611.71
2018-05-10T10:57:01.311Z,99613.47
2018-05-10T10:59:28.887Z,99622.19
2018-05-10T11:01:56.330Z,99618.91
2018-05-10T11:04:23.683Z,99620.67
2018-05-10T11:06:51.105Z,99627.49
2018-05-10T11:09:18.650Z,99622.74
2018-05-10T11:11:47.246Z,99621.91
2018-05-10T11:14:14.681Z,99621.30
2018-05-10T11:16:42.123Z,99624.66
2018-05-10T11:19:09.532Z,99629.99
2018-05-10T11:21:36.940Z,99628.06
2018-05-10T11:24:04.339Z,99634.94
2018-05-10T11:26:31.740Z,99631.02
2018-05-10T11:28:59.159Z,99641.74
2018-05-10T11:31:26.630Z,99641.66
2018-05-10T11:33:54.041Z,99650.91
2018-05-10T11:36:21.432Z,99648.87
2018-05-10T11:38:48.826Z,99654.35
2018-05-10T11:41:17.133Z,99654.59
2018-05-10T11:43:44.553Z,99665.59
2018-05-10T11:46:11.942Z,99653.50
2018-05-10T11:48:39.408Z,99673.97
2018-05-10T11:51:06.778Z,99664.46
2018-05-10T11:53:34.164Z,99669.59
2018-05-10T11:56:01.556Z,99668.75
2018-05-10T11:58:28.951Z,99674.34
2018-05-10T12:00:56.351Z,99682.56
2018-05-10T12:03:23.741Z,99688.16
2018-05-10T12:05:52.896Z,99703.27
2018-05-10T12:08:20.278Z,99704.55
2018-05-10T12:10:47.685Z,99707.13
2018-05-10T12:13:15.094Z,99702.86
2018-05-10T12:15:42.476Z,99704.55
2018-05-10T12:18:09.871Z,99715.30
2018-05-10T12:20:37.264Z,99718.37
2018-05-10T12:23:04.653Z,99709.29
2018-05-10T12:25:32.116Z,99720.86
2018-05-10T12:27:59.437Z,99717.48
2018-05-10T12:30:26.909Z,99714.86
2018-05-10T12:32:54.224Z,99725.25
2018-05-10T12:35:21.611Z,99723.06
2018-05-10T12:37:49.051Z,99727.39
2018-05-10T12:40:17.396Z,99734.73
2018-05-10T12:42:44.791Z,99745.07
2018-05-10T12:45:12.176Z,99752.39
2018-05-10T12:47:39.563Z,99742.48
2018-05-10T12:50:06.966Z,99747.23
2018-05-10T12:52:34.359Z,99752.41
2018-05-10T12:55:01.759Z,99753.70
2018-05-10T12:57:29.336Z,99762.32
2018-05-10T12:59:56.800Z,99758.43
2018-05-10T13:02:24.251Z,99770.46
2018-05-10T13:04:51.680Z,99767.45
2018-05-10T13:07:19.585Z,99768.30
2018-05-10T13:09:47.672Z,99785.11
2018-05-10T13:12:15.116Z,99785.95
2018-05-10T13:14:42.514Z,99779.56
2018-05-10T13:17:09.911Z,99781.27
2018-05-10T13:19:37.299Z,99798.09
2018-05-10T13:22:04.700Z,99797.16
2018-05-10T13:24:32.389Z,99799.34
2018-05-10T13:26:59.773Z,99802.38
2018-05-10T13:29:27.190Z,99807.16
2018-05-10T13:31:54.556Z,99799.81
2018-05-10T13:34:22.139Z,99804.55
2018-05-10T13:36:49.533Z,99805.39
2018-05-10T13:39:17.719Z,99815.75
2018-05-10T13:41:45.143Z,99817.05
2018-05-10T13:44:12.592Z,99826.95
2018-05-10T13:46:40.254Z,99833.37
2018-05-10T13:49:07.608Z,99842.48
2018-05-10T13:51:34.994Z,99836.78
2018-05-10T13:54:02.387Z,99842.74
2018-05-10T13:56:29.777Z,99843.14
2018-05-10T13:58:57.319Z,99848.89
2018-05-10T14:01:24.693Z,99870.33
2018-05-10T14:03:52.086Z,99867.92
2018-05-10T14:06:19.471Z,99873.05
2018-05-10T14:08:47.802Z,99883.06
2018-05-10T14:11:15.204Z,99882.34
2018-05-10T14:13:42.898Z,99878.80
2018-05-10T14:16:10.390Z,99886.61
2018-05-10T14:18:37.794Z,99894.86
2018-05-10T14:21:05.184Z,99900.10
2018-05-10T14:23:32.588Z,99901.55
2018-05-10T14:26:00.972Z,99914.98
2018-05-10T14:28:28.380Z,99915.83
2018-05-10T14:30:55.793Z,99925.03
2018-05-10T14:33:23.201Z,99934.81
2018-05-10T14:35:50.610Z,99941.36
2018-05-10T14:38:18.000Z,99945.59
2018-05-10T14:40:45.383Z,99949.58
2018-05-10T14:43:12.784Z,99958.91
2018-05-10T14:45:40.309Z,99965.22
2018-05-10T14:48:07.720Z,99970.91
2018-05-10T14:50:35.140Z,99972.38
2018-05-10T14:53:02.519Z,99974.60
2018-05-10T14:55:29.916Z,99982.31
2018-05-10T14:57:57.290Z,99991.13
2018-05-10T15:00:24.680Z,99992.92
2018-05-10T15:02:52.259Z,99999.12
2018-05-10T15:05:19.696Z,100005.80
2018-05-10T15:07:48.144Z,100007.71
2018-05-10T15:10:15.635Z,100007.92
2018-05-10T15:12:43.032Z,100013.86
2018-05-10T15:15:10.441Z,100017.05
2018-05-10T15:17:37.827Z,100013.97
2018-05-10T15:20:05.212Z,100022.16
2018-05-10T15:22:32.605Z,100023.50
2018-05-10T15:24:59.990Z,100018.36
2018-05-10T15:27:28.571Z,100026.22
2018-05-10T15:29:56.068Z,100034.58
2018-05-10T15:32:23.472Z,100038.55
2018-05-10T15:34:50.956Z,100045.66
2018-05-10T15:37:18.919Z,100047.47
2018-05-10T15:39:46.314Z,100046.00
2018-05-10T15:42:13.707Z,100056.77
2018-05-10T15:44:41.078Z,100064.39
2018-05-10T15:47:08.463Z,100060.91
2018-05-10T15:49:35.854Z,100065.94
2018-05-10T15:52:03.266Z,100066.39
2018-05-10T15:54:30.645Z,100088.13
2018-05-10T15:56:58.062Z,100078.52
2018-05-10T15:59:25.563Z,100085.85
2018-05-10T16:01:52.820Z,100091.09
2018-05-10T16:04:20.212Z,100090.63
2018-05-10T16:06:48.385Z,100091.81
2018-05-10T16:09:15.782Z,100098.06
2018-05-10T16:11:43.201Z,100108.42
2018-05-10T16:14:10.604Z,100099.66
2018-05-10T16:16:37.980Z,100104.50
2018-05-10T16:19:05.378Z,100108.95
2018-05-10T16:21:32.914Z,100106.26
2018-05-10T16:24:00.483Z,100115.84
2018-05-10T16:26:27.914Z,100112.38
2018-05-10T16:28:55.506Z,100115.81
2018-05-10T16:31:22.936Z,100123.27
2018-05-10T16:33:50.761Z,100128.05
2018-05-10T16:36:19.881Z,100132.84
2018-05-10T16:38:47.336Z,100140.76
2018-05-10T16:41:14.813Z,100144.69
2018-05-10T16:43:42.224Z,100152.28
2018-05-10T16:46:09.817Z,100151.83
2018-05-10T16:48:37.206Z,100156.19
2018-05-10T16:51:04.599Z,100164.26
2018-05-10T16:53:32.002Z,100168.70
2018-05-10T16:55:59.492Z,100173.73
2018-05-10T16:58:26.907Z,100174.30
2018-05-10T17:00:54.330Z,100174.55
2018-05-10T17:03:21.734Z,100176.77
2018-05-10T17:05:49.124Z,100180.35
2018-05-10T17:08:16.541Z,100187.98
2018-05-10T17:10:43.935Z,100183.60
2018-05-10T17:13:11.332Z,100193.45
2018-05-10T17:15:38.724Z,100200.38
2018-05-10T17:18:06.115Z,100199.83
2018-05-10T17:20:33.508Z,100208.28
2018-05-10T17:23:01.168Z,100210.17
2018-05-10T17:25:28.579Z,100216.05
2018-05-10T17:27:55.965Z,100221.93
2018-05-10T17:30:23.362Z,100222.98
2018-05-10T17:32:50.789Z,100224.47
2018-05-10T17:35:18.874Z,100230.80
2018-05-10T17:37:46.267Z,100233.55
2018-05-10T17:40:13.647Z,100236.33
2018-05-10T17:42:41.056Z,100237.16
2018-05-10T17:45:08.439Z,100247.92
2018-05-10T17:47:35.835Z,100251.60
2018-05-10T17:50:03.211Z,100251.17
2018-05-10T17:52:30.615Z,100262.06
2018-05-10T17:54:58.008Z,100262.73
2018-05-10T17:57:25.707Z,100263.55
2018-05-10T17:59:53.097Z,100265.29
2018-05-10T18:02:20.474Z,100264.47
2018-05-10T18:04:47.886Z,100267.33
2018-05-10T18:07:15.309Z,100269.12
2018-05-10T18:09:42.652Z,100275.49
2018-05-10T18:12:10.047Z,100278.89
2018-05-10T18:14:37.438Z,100281.36
2018-05-10T18:17:05.035Z,100286.32
2018-05-10T18:19:32.431Z,100278.09
2018-05-10T18:21:59.827Z,100293.08
2018-05-10T18:24:27.228Z,100289.02
2018-05-10T18:26:54.708Z,100298.78
2018-05-10T18:29:22.031Z,100295.78
2018-05-10T18:31:49.423Z,100297.30
2018-05-10T18:34:16.825Z,100300.05
2018-05-10T18:36:44.216Z,100301.25
2018-05-10T18:39:11.616Z,100304.20
2018-05-10T18:41:39.014Z,100312.64
2018-05-10T18:44:06.438Z,100319.03
2018-05-10T18:46:34.080Z,100319.97
2018-05-10T18:49:01.635Z,100330.49
2018-05-10T18:51:29.023Z,100332.44
2018-05-10T18:53:56.453Z,100336.33
2018-05-10T18:56:23.825Z,100341.65
2018-05-10T18:58:51.554Z,100346.19
2018-05-10T19:01:20.206Z,100350.62
2018-05-10T19:03:47.616Z,100355.66
2018-05-10T19:06:16.439Z,100351.86
2018-05-10T19:08:43.819Z,100364.72
2018-05-10T19:11:11.207Z,100367.39
2018-05-10T19:13:38.601Z,100369.56
2018-05-10T19:16:05.975Z,100368.09
2018-05-10T19:18:33.374Z,100370.05
2018-05-10T19:21:00.824Z,100371.47
2018-05-10T19:23:28.163Z,100379.91
2018-05-10T19:25:55.559Z,100383.27
2018-05-10T19:28:22.967Z,100380.95
2018-05-10T19:30:50.359Z,100395.91
2018-05-10T19:33:17.759Z,100400.76
2018-05-10T19:35:45.175Z,100398.73
2018-05-10T19:38:12.583Z,100405.33
2018-05-10T19:40:40.006Z,100409.91
2018-05-10T19:43:07.405Z,100410.27
2018-05-10T19:45:34.800Z,100412.95
2018-05-10T19:48:02.198Z,100419.91
2018-05-10T19:50:29.597Z,100423.95
2018-05-10T19:52:56.988Z,100426.53
2018-05-10T19:55:26.836Z,100422.58
2018-05-10T19:57:54.207Z,100423.91
2018-05-10T20:00:21.629Z,100430.08
2018-05-10T20:02:49.564Z,100430.99
2018-05-10T20:05:17.013Z,100438.47
2018-05-10T20:07:44.391Z,100447.95
2018-05-10T20:10:11.779Z,100447.53
2018-05-10T20:12:39.171Z,100447.86
2018-05-10T20:15:06.607Z,100444.09
2018-05-10T20:17:33.998Z,100451.80
2018-05-10T20:20:01.389Z,100451.03
2018-05-10T20:22:28.765Z,100450.49
2018-05-10T20:24:56.156Z,100455.44
2018-05-10T20:27:23.534Z,100457.59
2018-05-10T20:29:50.960Z,100461.97
2018-05-10T20:32:18.554Z,100470.16
2018-05-10T20:34:46.842Z,100471.66
2018-05-10T20:37:14.203Z,100479.27
2018-05-10T20:39:41.595Z,100474.23
2018-05-10T20:42:08.974Z,100472.14
2018-05-10T20:44:36.439Z,100470.69
2018-05-10T20:47:03.751Z,100473.70
2018-05-10T20:49:31.157Z,100472.47
2018-05-10T20:51:58.762Z,100477.37
2018-05-10T20:54:26.422Z,100477.64
2018-05-10T20:56:54.179Z,100477.72
2018-05-10T20:59:21.594Z,100486.48
2018-05-10T21:01:50.124Z,100478.15
2018-05-10T21:04:17.583Z,100483.33
2018-05-10T21:06:45.118Z,100482.37
2018-05-10T21:09:12.526Z,100486.38
2018-05-10T21:11:39.973Z,100485.73
2018-05-10T21:14:07.407Z,100489.81
2018-05-10T21:16:34.861Z,100495.91
2018-05-10T21:19:02.230Z,100499.02
2018-05-10T21:21:29.646Z,100498.64
2018-05-10T21:23:58.093Z,100503.77
2018-05-10T21:26:25.500Z,100510.23
2018-05-10T21:28:52.884Z,100512.33
2018-05-10T21:31:20.260Z,100519.61
2018-05-10T21:33:48.163Z,100521.48
2018-05-10T21:36:15.507Z,100521.81
2018-05-10T21:38:42.883Z,100519.73
2018-05-10T21:41:10.285Z,100522.18
2018-05-10T21:43:37.669Z,100512.23
2018-05-10T21:46:05.071Z,100514.91
2018-05-10T21:48:33.078Z,100511.80
2018-05-10T21:51:00.480Z,100525.23
2018-05-10T21:53:27.880Z,100527.92
2018-05-10T21:55:55.280Z,100528.45
2018-05-10T21:58:22.692Z,100525.44
2018-05-10T22:00:50.102Z,100526.89
2018-05-10T22:03:17.499Z,100529.63
2018-05-10T22:05:44.887Z,100530.19
2018-05-10T22:08:12.280Z,100528.42
2018-05-10T22:10:39.684Z,100532.66
2018-05-10T22:13:07.075Z,100534.63
2018-05-10T22:15:34.476Z,100535.22
2018-05-10T22:18:01.946Z,100531.16
2018-05-10T22:20:29.264Z,100541.77
2018-05-10T22:22:56.644Z,100530.26
2018-05-10T22:25:24.050Z,100539.63
2018-05-10T22:27:51.442Z,100538.81
2018-05-10T22:30:18.918Z,100540.94
2018-05-10T22:32:46.324Z,100542.82
2018-05-10T22:35:13.716Z,100543.21
2018-05-10T22:37:41.097Z,100543.38
2018-05-10T22:40:08.501Z,100544.33
2018-05-10T22:42:35.887Z,100541.05
2018-05-10T22:45:03.284Z,100548.95
2018-05-10T22:47:30.679Z,100541.14
2018-05-10T22:49:58.070Z,100537.90
2018-05-10T22:52:25.465Z,100545.17
2018-05-10T22:54:52.851Z,100538.48
2018-05-10T22:57:20.384Z,100552.84
2018-05-10T22:59:47.863Z,100542.60
2018-05-10T23:02:15.213Z,100548.43
2018-05-10T23:04:42.618Z,100546.59
2018-05-10T23:07:10.004Z,100537.60
2018-05-10T23:09:37.415Z,100541.06
2018-05-10T23:12:04.902Z,100542.97
2018-05-10T23:14:32.388Z,100543.31
2018-05-10T23:16:59.779Z,100541.80
2018-05-10T23:19:27.184Z,100542.71
2018-05-10T23:21:54.585Z,100539.85
2018-05-10T23:24:21.989Z,100535.16
2018-05-10T23:26:49.395Z,100538.69
2018-05-10T23:29:16.783Z,100535.59
2018-05-10T23:31:44.177Z,100528.31
2018-05-10T23:34:11.564Z,100534.09
2018-05-10T23:36:38.959Z,100533.19
2018-05-10T23:39:06.353Z,100535.61
2018-05-10T23:41:33.737Z,100533.66
2018-05-10T23:44:01.155Z,100530.30
2018-05-10T23:46:28.568Z,100533.25
2018-05-10T23:48:55.956Z,100535.50
2018-05-10T23:51:23.358Z,100531.73
2018-05-10T23:53:50.751Z,100535.44
2018-05-10T23:56:18.144Z,100531.58
2018-05-10T23:58:45.543Z,100539.59
